createdAt,value
2022-11-16T00:02:42.224Z,18.00
2022-11-16T00:05:28.105Z,18.02
2022-11-16T00:08:11.127Z,18.17
2022-11-16T00:10:59.932Z,18.12
2022-11-16T00:13:43.763Z,18.03
2022-11-16T00:16:34.950Z,18.06
2022-11-16T00:19:17.354Z,17.78
2022-11-16T00:22:06.953Z,17.72
2022-11-16T00:25:01.928Z,17.61
2022-11-16T00:27:44.086Z,17.60
2022-11-16T00:30:32.984Z,17.64
2022-11-16T00:33:17.504Z,17.72
2022-11-16T00:36:05.916Z,17.63
2022-11-16T00:38:48.757Z,17.54
2022-11-16T00:41:37.933Z,17.49
2022-11-16T00:44:20.189Z,17.40
2022-11-16T00:47:08.918Z,17.42
2022-11-16T00:49:51.114Z,17.42
2022-11-16T00:52:39.901Z,17.33
2022-11-16T00:55:22.213Z,17.29
2022-11-16T00:58:11.917Z,17.27
2022-11-16T01:01:04.182Z,17.36
2022-11-16T01:03:55.913Z,17.33
2022-11-16T01:06:38.644Z,17.33
2022-11-16T01:09:27.939Z,17.28
2022-11-16T01:12:11.215Z,17.25
2022-11-16T01:15:01.915Z,17.26
2022-11-16T01:17:44.746Z,17.28
2022-11-16T01:20:35.897Z,17.30
2022-11-16T01:23:25.355Z,17.19
2022-11-16T01:26:09.903Z,17.15
2022-11-16T01:28:58.937Z,17.06
2022-11-16T01:31:46.649Z,16.96
2022-11-16T01:34:36.209Z,16.88
2022-11-16T01:37:44.922Z,16.94
2022-11-16T01:40:35.946Z,16.86
2022-11-16T01:43:31.360Z,16.80
2022-11-16T01:46:19.909Z,16.88
2022-11-16T01:49:26.243Z,16.80
2022-11-16T01:52:29.917Z,17.03
2022-11-16T01:55:19.910Z,17.00
2022-11-16T01:58:26.455Z,17.02
2022-11-16T02:01:39.038Z,17.20
2022-11-16T02:04:22.140Z,17.27
2022-11-16T02:07:19.969Z,17.33
2022-11-16T02:10:24.184Z,17.62
2022-11-16T02:13:36.924Z,18.15
2022-11-16T02:16:21.947Z,18.73
2022-11-16T02:19:19.872Z,19.34
2022-11-16T02:22:36.905Z,19.07
2022-11-16T02:25:34.664Z,18.93
2022-11-16T02:28:33.188Z,20.36
2022-11-16T02:31:27.900Z,21.88
2022-11-16T02:34:20.897Z,22.25
2022-11-16T02:37:12.887Z,22.58
2022-11-16T02:40:00.175Z,22.72
2022-11-16T02:43:11.947Z,22.92
2022-11-16T02:45:59.187Z,22.99
2022-11-16T02:48:53.885Z,22.66
2022-11-16T02:51:37.191Z,20.99
2022-11-16T02:54:28.915Z,20.46
2022-11-16T02:57:11.178Z,20.77
2022-11-16T03:00:03.909Z,20.37
2022-11-16T03:03:21.887Z,20.43
2022-11-16T03:06:21.909Z,20.20
2022-11-16T03:09:20.899Z,19.28
2022-11-16T03:12:16.193Z,19.80
2022-11-16T03:15:02.986Z,20.28
2022-11-16T03:17:51.096Z,20.83
2022-11-16T03:20:44.820Z,20.24
2022-11-16T03:23:41.755Z,20.51
2022-11-16T03:26:37.819Z,20.82
2022-11-16T03:29:36.895Z,21.07
2022-11-16T03:32:51.833Z,20.74
2022-11-16T03:35:47.826Z,21.21
2022-11-16T03:38:32.587Z,21.49
2022-11-16T03:41:25.164Z,21.73
2022-11-16T03:44:16.903Z,21.60
2022-11-16T03:47:05.814Z,22.97
2022-11-16T03:49:49.027Z,23.46
2022-11-16T03:52:39.836Z,23.91
2022-11-16T03:55:23.086Z,23.89
2022-11-16T03:58:11.906Z,23.98
2022-11-16T04:01:02.319Z,24.32
2022-11-16T04:03:44.826Z,24.70
2022-11-16T04:06:46.481Z,24.54
2022-11-16T04:09:52.812Z,24.26
2022-11-16T04:12:59.794Z,25.03
2022-11-16T04:16:00.874Z,24.69
2022-11-16T04:19:01.117Z,25.04
2022-11-16T04:22:24.802Z,25.02
2022-11-16T04:25:25.189Z,25.59
2022-11-16T04:28:23.812Z,25.46
2022-11-16T04:31:34.903Z,24.88
2022-11-16T04:34:49.891Z,24.64
2022-11-16T04:37:57.801Z,25.00
2022-11-16T04:40:43.177Z,24.69
2022-11-16T04:43:32.879Z,25.11
2022-11-16T04:46:39.818Z,25.13
2022-11-16T04:49:28.809Z,25.44
2022-11-16T04:52:11.316Z,24.95
2022-11-16T04:55:00.790Z,24.77
2022-11-16T04:57:44.222Z,24.62
2022-11-16T05:00:32.778Z,25.14
2022-11-16T05:03:16.248Z,24.98
2022-11-16T05:06:05.801Z,24.60
2022-11-16T05:08:49.167Z,24.95
2022-11-16T05:11:37.889Z,24.07
2022-11-16T05:14:38.850Z,23.95
2022-11-16T05:17:30.974Z,24.33
2022-11-16T05:20:38.096Z,24.38
2022-11-16T05:23:50.975Z,24.26
2022-11-16T05:26:38.721Z,24.21
2022-11-16T05:29:27.975Z,24.31
2022-11-16T05:32:12.242Z,24.97
2022-11-16T05:35:00.889Z,25.14
2022-11-16T05:37:50.902Z,24.74
2022-11-16T05:40:34.237Z,24.69
2022-11-16T05:43:22.989Z,25.32
2022-11-16T05:46:28.207Z,24.78
2022-11-16T05:49:16.881Z,24.65
2022-11-16T05:52:06.022Z,25.10
2022-11-16T05:54:50.397Z,25.06
2022-11-16T05:57:39.052Z,24.85
2022-11-16T06:00:22.346Z,25.57
2022-11-16T06:03:11.137Z,25.09
2022-11-16T06:05:54.296Z,25.11
2022-11-16T06:08:44.995Z,25.42
2022-11-16T06:11:36.003Z,25.51
2022-11-16T06:14:24.992Z,25.26
2022-11-16T06:17:13.883Z,25.85
2022-11-16T06:20:02.892Z,25.32
2022-11-16T06:22:46.234Z,25.16
2022-11-16T06:25:35.920Z,25.63
2022-11-16T06:28:18.293Z,25.28
2022-11-16T06:31:06.978Z,25.61
2022-11-16T06:33:50.248Z,25.80
2022-11-16T06:36:41.896Z,25.81
2022-11-16T06:39:25.288Z,25.65
2022-11-16T06:42:14.979Z,25.62
2022-11-16T06:44:57.277Z,25.51
2022-11-16T06:47:51.903Z,25.76
2022-11-16T06:50:35.229Z,25.52
2022-11-16T06:53:29.001Z,25.94
2022-11-16T06:56:13.261Z,25.85
2022-11-16T06:59:06.970Z,26.08
2022-11-16T07:01:52.156Z,25.53
2022-11-16T07:04:42.890Z,25.62
2022-11-16T07:07:25.311Z,25.50
2022-11-16T07:10:13.892Z,24.91
2022-11-16T07:13:02.255Z,25.54
2022-11-16T07:15:47.006Z,25.54
2022-11-16T07:18:35.906Z,25.56
2022-11-16T07:21:21.977Z,25.72
2022-11-16T07:24:11.969Z,25.74
2022-11-16T07:26:55.236Z,25.70
2022-11-16T07:29:48.900Z,25.59
2022-11-16T07:32:51.262Z,25.33
2022-11-16T07:35:58.867Z,25.54
2022-11-16T07:38:42.247Z,25.11
2022-11-16T07:41:30.874Z,25.37
2022-11-16T07:44:22.325Z,25.42
2022-11-16T07:47:21.885Z,25.43
2022-11-16T07:50:04.283Z,25.46
2022-11-16T07:52:55.977Z,25.63
2022-11-16T07:55:38.350Z,25.48
2022-11-16T07:58:29.035Z,25.57
2022-11-16T08:01:13.342Z,25.62
2022-11-16T08:04:02.888Z,25.93
2022-11-16T08:06:45.712Z,25.62
2022-11-16T08:09:36.930Z,25.58
2022-11-16T08:12:23.249Z,25.42
2022-11-16T08:15:11.887Z,25.47
2022-11-16T08:17:54.270Z,25.67
2022-11-16T08:20:43.955Z,25.55
2022-11-16T08:23:26.288Z,25.17
2022-11-16T08:26:22.032Z,24.86
2022-11-16T08:29:22.879Z,25.21
2022-11-16T08:32:12.869Z,24.95
2022-11-16T08:34:55.280Z,25.31
2022-11-16T08:37:43.882Z,25.46
2022-11-16T08:40:26.266Z,25.21
2022-11-16T08:43:14.879Z,25.23
2022-11-16T08:45:59.467Z,25.02
2022-11-16T08:48:47.913Z,25.48
2022-11-16T08:51:32.253Z,25.14
2022-11-16T08:54:20.863Z,25.24
2022-11-16T08:57:04.272Z,25.24
2022-11-16T08:59:53.959Z,25.08
2022-11-16T09:02:36.320Z,25.34
2022-11-16T09:05:24.973Z,25.02
2022-11-16T09:08:07.297Z,25.02
2022-11-16T09:10:55.957Z,24.99
2022-11-16T09:13:45.257Z,25.07
2022-11-16T09:16:28.959Z,25.08
2022-11-16T09:19:11.861Z,25.16
2022-11-16T09:22:00.869Z,25.18
2022-11-16T09:24:49.858Z,25.55
2022-11-16T09:27:32.313Z,25.21
2022-11-16T09:30:20.998Z,24.86
2022-11-16T09:33:12.835Z,24.80
2022-11-16T09:35:55.127Z,24.85
2022-11-16T09:42:14.329Z,25.23
2022-11-16T09:45:47.877Z,25.17
2022-11-16T09:48:36.872Z,25.34
2022-11-16T09:51:24.296Z,25.23
2022-11-16T09:54:35.961Z,25.06
2022-11-16T09:57:26.918Z,25.24
2022-11-16T10:00:26.085Z,24.93
2022-11-16T10:03:20.339Z,25.34
2022-11-16T10:06:12.973Z,25.23
2022-11-16T10:08:58.225Z,24.99
2022-11-16T10:12:12.850Z,24.97
2022-11-16T10:15:20.969Z,24.59
2022-11-16T10:18:21.186Z,25.02
2022-11-16T10:21:16.060Z,25.25
2022-11-16T10:24:21.079Z,24.94
2022-11-16T10:27:45.933Z,24.92
2022-11-16T10:30:35.862Z,25.07
2022-11-16T10:33:42.897Z,25.15
2022-11-16T10:36:34.232Z,24.88
2022-11-16T10:39:22.959Z,25.02
2022-11-16T10:42:18.869Z,25.09
2022-11-16T10:45:30.967Z,25.14
2022-11-16T10:48:26.245Z,24.63
2022-11-16T10:51:09.856Z,24.86
2022-11-16T10:53:59.499Z,25.18
2022-11-16T10:56:47.967Z,24.91
2022-11-16T10:59:51.048Z,24.88
2022-11-16T11:02:39.877Z,25.00
2022-11-16T11:05:22.935Z,25.14
2022-11-16T11:08:24.948Z,24.87
2022-11-16T11:11:26.229Z,24.94
2022-11-16T11:14:29.948Z,24.96
2022-11-16T11:17:13.963Z,25.01
2022-11-16T11:20:15.873Z,24.93
2022-11-16T11:23:00.936Z,25.01
2022-11-16T11:25:52.864Z,24.86
2022-11-16T11:28:45.981Z,24.76
2022-11-16T11:31:58.957Z,24.99
2022-11-16T11:34:47.087Z,24.43
2022-11-16T11:37:53.983Z,24.35
2022-11-16T11:40:36.268Z,24.50
2022-11-16T11:43:37.094Z,24.39
2022-11-16T11:47:18.226Z,24.27
2022-11-16T11:49:44.382Z,24.13
2022-11-16T11:53:13.886Z,23.89
2022-11-16T11:56:09.854Z,23.89
2022-11-16T11:58:53.122Z,23.68
2022-11-16T12:02:09.924Z,23.65
2022-11-16T12:05:36.713Z,23.31
2022-11-16T12:08:36.863Z,23.15
2022-11-16T12:11:28.115Z,23.05
2022-11-16T12:14:32.200Z,22.93
2022-11-16T12:17:26.632Z,22.99
2022-11-16T12:20:18.863Z,22.98
2022-11-16T12:23:49.023Z,22.73
2022-11-16T12:26:55.313Z,22.61
2022-11-16T12:29:48.874Z,22.50
2022-11-16T12:32:58.899Z,22.34
2022-11-16T12:35:53.865Z,22.18
2022-11-16T12:38:51.063Z,22.08
2022-11-16T12:42:02.853Z,22.04
2022-11-16T12:44:57.544Z,21.99
2022-11-16T12:48:15.927Z,21.97
2022-11-16T12:51:31.825Z,21.85
2022-11-16T12:54:34.639Z,21.82
2022-11-16T12:57:48.835Z,21.77
2022-11-16T13:00:31.299Z,21.69
2022-11-16T13:03:29.876Z,21.70
2022-11-16T13:06:17.345Z,21.50
2022-11-16T13:09:29.957Z,21.38
2022-11-16T13:12:18.418Z,21.43
2022-11-16T13:15:09.952Z,21.51
2022-11-16T13:18:02.939Z,21.41
2022-11-16T13:21:14.834Z,21.37
2022-11-16T13:24:09.934Z,21.29
2022-11-16T13:27:25.864Z,21.30
2022-11-16T13:30:27.921Z,21.34
2022-11-16T13:33:50.618Z,22.43
2022-11-16T13:36:46.144Z,22.58
2022-11-16T13:40:16.842Z,23.07
2022-11-16T13:43:11.423Z,22.17
2022-11-16T13:46:06.943Z,21.69
2022-11-16T13:49:00.879Z,21.31
2022-11-16T13:52:17.153Z,21.17
2022-11-16T13:55:21.941Z,21.10
2022-11-16T13:58:12.928Z,21.09
2022-11-16T14:01:12.012Z,21.05
2022-11-16T14:04:03.973Z,20.92
2022-11-16T14:06:46.201Z,21.04
2022-11-16T14:10:02.930Z,21.16
2022-11-16T14:13:02.908Z,20.99
2022-11-16T14:15:51.686Z,20.97
2022-11-16T14:18:44.880Z,20.77
2022-11-16T14:22:00.928Z,20.64
2022-11-16T14:25:01.988Z,20.66
2022-11-16T14:28:17.856Z,20.59
2022-11-16T14:31:19.809Z,20.57
2022-11-16T14:34:11.957Z,20.47
2022-11-16T14:36:54.885Z,20.53
2022-11-16T14:39:51.854Z,20.48
2022-11-16T14:43:01.871Z,20.41
2022-11-16T14:45:47.840Z,20.40
2022-11-16T14:48:37.193Z,20.42
2022-11-16T14:51:28.828Z,20.26
2022-11-16T14:54:38.908Z,20.30
2022-11-16T14:57:23.824Z,20.25
2022-11-16T15:00:37.930Z,20.20
2022-11-16T15:03:27.933Z,20.22
2022-11-16T15:06:12.363Z,20.14
2022-11-16T15:09:05.833Z,20.07
2022-11-16T15:12:14.925Z,20.03
2022-11-16T15:15:08.245Z,20.03
2022-11-16T15:17:53.906Z,19.97
2022-11-16T15:20:45.217Z,20.02
2022-11-16T15:23:30.762Z,19.93
2022-11-16T15:26:19.924Z,20.03
2022-11-16T15:29:02.267Z,19.96
2022-11-16T15:31:50.833Z,20.03
2022-11-16T15:34:33.642Z,19.99
2022-11-16T15:37:33.919Z,20.02
2022-11-16T15:40:24.965Z,20.02
2022-11-16T15:43:08.378Z,20.08
2022-11-16T15:45:57.865Z,19.91
2022-11-16T15:48:46.815Z,19.97
2022-11-16T15:51:33.961Z,19.95
2022-11-16T15:54:34.912Z,19.98
2022-11-16T15:57:27.914Z,19.92
2022-11-16T16:00:23.982Z,19.89
2022-11-16T16:03:30.818Z,19.85
2022-11-16T16:06:22.347Z,19.89
2022-11-16T16:09:15.036Z,19.81
2022-11-16T16:12:24.929Z,19.75
2022-11-16T16:15:37.746Z,19.67
2022-11-16T16:18:47.835Z,19.64
2022-11-16T16:21:31.222Z,19.61
2022-11-16T16:24:52.837Z,19.69
2022-11-16T16:27:38.378Z,19.61
2022-11-16T16:30:26.960Z,19.56
2022-11-16T16:33:09.178Z,19.40
2022-11-16T16:35:58.915Z,19.47
2022-11-16T16:38:41.217Z,19.49
2022-11-16T16:41:29.828Z,19.49
2022-11-16T16:44:22.220Z,19.47
2022-11-16T16:47:10.856Z,19.42
2022-11-16T16:49:53.201Z,19.38
2022-11-16T16:52:41.922Z,19.38
2022-11-16T16:55:24.218Z,19.34
2022-11-16T16:58:12.909Z,19.44
2022-11-16T17:01:00.938Z,19.41
2022-11-16T17:03:49.939Z,19.40
2022-11-16T17:06:32.469Z,19.27
2022-11-16T17:09:20.935Z,19.25
2022-11-16T17:12:09.911Z,19.30
2022-11-16T17:15:05.910Z,19.26
2022-11-16T17:17:54.927Z,19.32
2022-11-16T17:20:45.496Z,19.43
2022-11-16T17:23:37.050Z,19.38
2022-11-16T17:26:26.913Z,19.34
2022-11-16T17:29:09.934Z,19.34
2022-11-16T17:32:01.936Z,19.26
2022-11-16T17:34:50.708Z,19.22
2022-11-16T17:37:32.925Z,19.15
2022-11-16T17:40:15.920Z,19.34
2022-11-16T17:43:05.002Z,19.26
2022-11-16T17:45:47.149Z,19.19
2022-11-16T17:48:36.854Z,19.16
2022-11-16T17:51:21.742Z,19.17
2022-11-16T17:54:10.816Z,19.05
2022-11-16T17:56:59.824Z,19.05
2022-11-16T17:59:42.308Z,19.09
2022-11-16T18:02:30.926Z,19.06
2022-11-16T18:05:19.831Z,18.93
2022-11-16T18:08:08.889Z,18.90
2022-11-16T18:10:57.897Z,18.96
2022-11-16T18:13:53.962Z,18.96
2022-11-16T18:16:45.398Z,19.10
2022-11-16T18:19:27.824Z,19.05
2022-11-16T18:22:10.136Z,18.88
2022-11-16T18:24:58.895Z,18.83
2022-11-16T18:27:47.931Z,18.87
2022-11-16T18:30:37.894Z,19.06
2022-11-16T18:33:30.694Z,19.17
2022-11-16T18:36:14.968Z,19.00
2022-11-16T18:39:04.317Z,19.47
2022-11-16T18:41:55.242Z,19.46
2022-11-16T18:44:37.306Z,19.27
2022-11-16T18:47:25.813Z,19.25
2022-11-16T18:50:19.023Z,19.15
2022-11-16T18:53:08.953Z,19.05
2022-11-16T18:55:57.818Z,18.94
2022-11-16T18:58:51.988Z,19.09
2022-11-16T19:01:35.372Z,18.93
2022-11-16T19:04:25.816Z,18.71
2022-11-16T19:07:08.797Z,18.73
2022-11-16T19:09:57.891Z,18.59
2022-11-16T19:12:47.318Z,18.54
2022-11-16T19:15:35.902Z,18.60
2022-11-16T19:18:22.216Z,18.55
2022-11-16T19:21:21.992Z,18.54
2022-11-16T19:24:05.356Z,18.50
2022-11-16T19:26:54.928Z,18.56
2022-11-16T19:29:37.236Z,18.38
2022-11-16T19:32:26.923Z,18.50
2022-11-16T19:35:11.884Z,18.39
2022-11-16T19:38:00.790Z,18.34
2022-11-16T19:40:43.313Z,18.24
2022-11-16T19:43:32.081Z,18.27
2022-11-16T19:46:28.886Z,18.29
2022-11-16T19:49:20.886Z,18.26
2022-11-16T19:52:03.436Z,18.19
2022-11-16T19:54:51.888Z,18.20
2022-11-16T19:57:34.340Z,18.17
2022-11-16T20:00:23.812Z,18.15
2022-11-16T20:03:13.856Z,18.19
2022-11-16T20:06:31.214Z,18.23
2022-11-16T20:09:16.873Z,18.16
2022-11-16T20:12:06.889Z,18.22
2022-11-16T20:15:01.725Z,18.23
2022-11-16T20:17:50.883Z,18.25
2022-11-16T20:20:39.791Z,18.18
2022-11-16T20:23:28.886Z,18.11
2022-11-16T20:26:25.872Z,18.12
2022-11-16T20:29:08.083Z,18.05
2022-11-16T20:31:56.878Z,18.11
2022-11-16T20:34:39.178Z,18.14
2022-11-16T20:37:27.799Z,18.07
2022-11-16T20:40:16.788Z,18.04
2022-11-16T20:43:01.153Z,18.09
2022-11-16T20:45:49.935Z,18.01
2022-11-16T20:48:32.170Z,17.99
2022-11-16T20:51:24.977Z,18.03
2022-11-16T20:54:07.200Z,18.01
2022-11-16T20:56:58.886Z,17.99
2022-11-16T20:59:41.155Z,17.95
2022-11-16T21:02:29.799Z,17.96
2022-11-16T21:05:19.880Z,17.98
2022-11-16T21:08:02.041Z,17.96
2022-11-16T21:10:51.782Z,17.99
2022-11-16T21:13:58.799Z,18.04
2022-11-16T21:16:54.787Z,18.13
2022-11-16T21:19:59.553Z,18.10
2022-11-16T21:22:52.871Z,18.11
2022-11-16T21:25:41.867Z,18.04
2022-11-16T21:28:25.724Z,18.04
2022-11-16T21:31:17.793Z,18.01
2022-11-16T21:34:10.886Z,18.01
2022-11-16T21:36:59.176Z,18.11
2022-11-16T21:39:40.786Z,18.06
2022-11-16T21:42:30.246Z,18.03
2022-11-16T21:45:12.878Z,18.02
2022-11-16T21:47:55.057Z,18.11
2022-11-16T21:50:43.913Z,17.89
2022-11-16T21:53:26.061Z,17.88
2022-11-16T21:56:14.827Z,17.88
2022-11-16T21:59:03.144Z,17.87
2022-11-16T22:02:04.870Z,17.83
2022-11-16T22:05:11.373Z,17.83
2022-11-16T22:07:52.847Z,17.77
2022-11-16T22:10:41.767Z,17.72
2022-11-16T22:13:30.758Z,17.70
2022-11-16T22:16:16.195Z,17.68
2022-11-16T22:19:04.853Z,17.60
2022-11-16T22:21:53.866Z,17.65
2022-11-16T22:24:36.288Z,17.64
2022-11-16T22:27:25.858Z,17.56
2022-11-16T22:30:14.851Z,17.67
2022-11-16T22:33:03.860Z,17.59
2022-11-16T22:35:52.768Z,17.57
2022-11-16T22:38:41.745Z,17.47
2022-11-16T22:41:24.158Z,17.42
2022-11-16T22:44:12.893Z,17.41
2022-11-16T22:46:55.137Z,17.40
2022-11-16T22:49:43.857Z,17.40
2022-11-16T22:52:26.150Z,17.31
2022-11-16T22:55:14.923Z,17.32
2022-11-16T22:57:57.152Z,17.31
2022-11-16T23:00:45.772Z,17.28
2022-11-16T23:03:28.299Z,17.35
2022-11-16T23:06:16.758Z,17.37
2022-11-16T23:08:59.153Z,17.25
2022-11-16T23:12:05.843Z,17.30
2022-11-16T23:15:18.741Z,17.21
2022-11-16T23:18:07.747Z,17.23
2022-11-16T23:21:08.557Z,17.11
2022-11-16T23:24:15.737Z,17.15
2022-11-16T23:27:23.772Z,17.15
2022-11-16T23:30:12.447Z,17.30
2022-11-16T23:33:01.847Z,17.26
2022-11-16T23:35:44.115Z,17.41
2022-11-16T23:38:32.852Z,17.34
2022-11-16T23:41:33.041Z,17.37
2022-11-16T23:44:21.740Z,17.48
2022-11-16T23:47:10.759Z,17.61
2022-11-16T23:49:53.141Z,17.65
2022-11-16T23:52:41.734Z,17.60
2022-11-16T23:55:24.263Z,17.62
2022-11-16T23:58:13.908Z,17.51
